createdAt,value
2018-12-19T00:02:13.657Z,2.33
2018-12-19T00:04:43.260Z,2.29
2018-12-19T00:07:13.491Z,2.26
2018-12-19T00:09:43.527Z,2.24
2018-12-19T00:12:14.113Z,2.25
2018-12-19T00:14:43.960Z,2.24
2018-12-19T00:17:13.542Z,2.23
2018-12-19T00:19:43.156Z,2.23
2018-12-19T00:22:13.434Z,2.23
2018-12-19T00:24:44.521Z,2.20
2018-12-19T00:27:14.533Z,2.19
2018-12-19T00:29:44.320Z,2.18
2018-12-19T00:32:14.380Z,2.19
2018-12-19T00:34:44.491Z,2.20
2018-12-19T00:37:15.199Z,2.24
2018-12-19T00:39:44.974Z,2.25
2018-12-19T00:42:15.391Z,2.27
2018-12-19T00:44:45.138Z,2.27
2018-12-19T00:47:15.060Z,2.27
2018-12-19T00:49:46.167Z,2.28
2018-12-19T00:52:16.155Z,2.30
2018-12-19T00:54:45.985Z,2.30
2018-12-19T00:57:16.508Z,2.26
2018-12-19T00:59:46.620Z,2.27
2018-12-19T01:02:16.215Z,2.27
2018-12-19T01:04:48.188Z,2.28
2018-12-19T01:07:17.650Z,2.29
2018-12-19T01:09:47.516Z,2.29
2018-12-19T01:12:17.429Z,2.31
2018-12-19T01:14:47.119Z,2.31
2018-12-19T01:17:16.791Z,2.33
2018-12-19T01:19:47.066Z,2.33
2018-12-19T01:22:16.965Z,2.35
2018-12-19T01:24:46.590Z,2.34
2018-12-19T01:27:16.762Z,2.33
2018-12-19T01:29:48.332Z,2.31
2018-12-19T01:32:18.884Z,2.29
2018-12-19T01:34:48.712Z,2.30
2018-12-19T01:37:18.560Z,2.31
2018-12-19T01:39:48.348Z,2.36
2018-12-19T01:42:18.416Z,2.41
2018-12-19T01:44:47.929Z,2.52
2018-12-19T01:47:17.731Z,2.65
2018-12-19T01:49:47.753Z,2.69
2018-12-19T01:52:17.315Z,2.74
2018-12-19T01:54:47.883Z,2.03
2018-12-19T01:57:17.979Z,2.92
2018-12-19T01:59:47.831Z,2.97
2018-12-19T02:02:19.299Z,3.02
2018-12-19T02:04:49.705Z,3.03
2018-12-19T02:07:19.212Z,3.08
2018-12-19T02:09:49.063Z,3.12
2018-12-19T02:12:19.052Z,3.20
2018-12-19T02:14:48.805Z,3.27
2018-12-19T02:17:18.502Z,3.42
2018-12-19T02:19:48.455Z,3.56
2018-12-19T02:22:18.385Z,3.67
2018-12-19T02:24:48.248Z,3.71
2018-12-19T02:27:18.323Z,3.74
2018-12-19T02:29:48.146Z,3.77
2018-12-19T02:32:18.811Z,3.82
2018-12-19T02:34:48.926Z,3.83
2018-12-19T02:37:18.805Z,3.86
2018-12-19T02:39:48.866Z,3.94
2018-12-19T02:42:19.385Z,4.07
2018-12-19T02:44:49.444Z,4.14
2018-12-19T02:47:19.149Z,4.17
2018-12-19T02:49:49.440Z,4.17
2018-12-19T02:52:19.347Z,4.23
2018-12-19T02:54:49.244Z,4.25
2018-12-19T02:57:19.886Z,4.29
2018-12-19T02:59:49.676Z,4.33
2018-12-19T03:02:19.799Z,4.36
2018-12-19T03:04:50.334Z,4.39
2018-12-19T03:07:20.478Z,4.42
2018-12-19T03:09:50.459Z,4.44
2018-12-19T03:12:20.727Z,4.49
2018-12-19T03:14:50.664Z,4.56
2018-12-19T03:17:20.207Z,4.65
2018-12-19T03:19:49.985Z,4.73
2018-12-19T03:22:19.973Z,4.81
2018-12-19T03:24:49.521Z,4.88
2018-12-19T03:27:20.022Z,4.99
2018-12-19T03:29:49.627Z,5.10
2018-12-19T03:32:19.524Z,5.17
2018-12-19T03:34:49.344Z,5.18
2018-12-19T03:37:19.009Z,5.23
2018-12-19T03:39:50.391Z,5.20
2018-12-19T03:42:20.838Z,5.30
2018-12-19T03:44:50.476Z,5.35
2018-12-19T03:47:20.142Z,5.40
2018-12-19T03:49:50.712Z,5.45
2018-12-19T03:52:20.905Z,5.52
2018-12-19T03:54:50.554Z,5.58
2018-12-19T03:57:21.141Z,5.62
2018-12-19T03:59:51.362Z,5.65
2018-12-19T04:02:21.443Z,5.67
2018-12-19T04:04:51.561Z,5.70
2018-12-19T04:07:21.238Z,5.02
2018-12-19T04:09:57.490Z,5.68
2018-12-19T04:12:23.277Z,5.65
2018-12-19T04:14:52.782Z,5.72
2018-12-19T04:17:22.734Z,5.84
2018-12-19T04:19:52.317Z,5.90
2018-12-19T04:22:22.696Z,4.92
2018-12-19T04:24:52.748Z,5.98
2018-12-19T04:27:22.498Z,6.00
2018-12-19T04:29:52.587Z,6.04
2018-12-19T04:32:22.501Z,6.07
2018-12-19T04:34:52.212Z,6.09
2018-12-19T04:37:22.269Z,6.12
2018-12-19T04:39:53.989Z,6.12
2018-12-19T04:42:24.098Z,6.11
2018-12-19T04:44:55.146Z,6.07
2018-12-19T04:47:24.886Z,5.95
2018-12-19T04:49:54.439Z,6.13
2018-12-19T04:52:24.248Z,6.21
2018-12-19T04:54:53.986Z,6.25
2018-12-19T04:57:23.450Z,6.26
2018-12-19T04:59:53.381Z,6.27
2018-12-19T05:02:23.414Z,6.22
2018-12-19T05:04:53.220Z,6.22
2018-12-19T05:07:23.692Z,5.93
2018-12-19T05:09:53.386Z,6.24
2018-12-19T05:12:24.335Z,6.14
2018-12-19T05:14:53.868Z,6.17
2018-12-19T05:17:23.988Z,6.29
2018-12-19T05:19:54.964Z,6.24
2018-12-19T05:22:25.018Z,6.30
2018-12-19T05:24:55.038Z,6.35
2018-12-19T05:27:25.397Z,6.40
2018-12-19T05:29:55.702Z,5.80
2018-12-19T05:32:26.497Z,6.37
2018-12-19T05:34:56.776Z,6.31
2018-12-19T05:37:26.395Z,6.32
2018-12-19T05:39:56.065Z,6.28
2018-12-19T05:42:26.497Z,6.31
2018-12-19T05:44:57.374Z,6.31
2018-12-19T05:47:28.704Z,6.32
2018-12-19T05:49:58.919Z,6.38
2018-12-19T05:52:29.378Z,6.32
2018-12-19T05:54:59.894Z,6.39
2018-12-19T05:57:29.838Z,6.34
2018-12-19T05:59:59.708Z,6.34
2018-12-19T06:02:29.473Z,6.36
2018-12-19T06:05:00.175Z,6.35
2018-12-19T06:07:29.687Z,6.31
2018-12-19T06:10:01.059Z,6.32
2018-12-19T06:12:31.504Z,6.39
2018-12-19T06:15:01.404Z,6.36
2018-12-19T06:17:31.023Z,6.37
2018-12-19T06:20:01.483Z,6.38
2018-12-19T06:22:31.070Z,6.43
2018-12-19T06:25:00.907Z,6.47
2018-12-19T06:27:30.573Z,6.50
2018-12-19T06:31:03.415Z,6.51
2018-12-19T06:33:34.011Z,6.58
2018-12-19T06:36:03.532Z,6.58
2018-12-19T06:38:33.252Z,6.53
2018-12-19T06:41:03.015Z,6.56
2018-12-19T06:43:32.523Z,6.62
2018-12-19T06:46:03.839Z,6.65
2018-12-19T06:48:33.472Z,6.63
2018-12-19T06:51:03.018Z,6.59
2018-12-19T06:53:32.524Z,6.52
2018-12-19T06:56:03.152Z,6.53
2018-12-19T06:58:32.550Z,6.55
2018-12-19T07:01:02.412Z,6.60
2018-12-19T07:03:33.319Z,6.63
2018-12-19T07:06:03.090Z,6.64
2018-12-19T07:08:32.848Z,6.64
2018-12-19T07:11:03.239Z,6.63
2018-12-19T07:13:33.056Z,6.63
2018-12-19T07:16:02.732Z,6.60
2018-12-19T07:18:32.676Z,6.69
2018-12-19T07:21:03.037Z,6.09
2018-12-19T07:23:32.577Z,6.67
2018-12-19T07:26:03.106Z,6.68
2018-12-19T07:28:32.825Z,6.66
2018-12-19T07:31:02.984Z,6.59
2018-12-19T07:33:32.851Z,6.60
2018-12-19T07:36:02.567Z,6.58
2018-12-19T07:38:32.013Z,6.60
2018-12-19T07:41:01.846Z,6.46
2018-12-19T07:43:31.716Z,6.38
2018-12-19T07:46:01.161Z,6.38
2018-12-19T07:48:31.455Z,6.43
2018-12-19T07:51:00.957Z,6.40
2018-12-19T07:53:30.914Z,6.23
2018-12-19T07:56:00.819Z,6.23
2018-12-19T07:58:30.428Z,6.21
2018-12-19T08:00:59.810Z,6.26
2018-12-19T08:03:29.914Z,6.23
2018-12-19T08:05:59.927Z,6.32
2018-12-19T08:08:29.506Z,6.34
2018-12-19T08:10:59.172Z,6.48
2018-12-19T08:13:29.186Z,6.48
2018-12-19T08:15:58.675Z,6.45
2018-12-19T08:18:28.794Z,6.45
2018-12-19T08:20:58.512Z,6.44
2018-12-19T08:23:28.414Z,6.52
2018-12-19T08:25:58.718Z,6.64
2018-12-19T08:28:28.145Z,6.66
2018-12-19T08:30:57.510Z,6.63
2018-12-19T08:33:27.334Z,6.62
2018-12-19T08:35:57.160Z,6.63
2018-12-19T08:38:28.516Z,6.71
2018-12-19T08:40:59.039Z,6.74
2018-12-19T08:43:29.428Z,6.77
2018-12-19T08:45:59.272Z,6.79
2018-12-19T08:48:28.987Z,6.82
2018-12-19T08:50:59.425Z,6.91
2018-12-19T08:53:29.028Z,6.91
2018-12-19T08:55:58.762Z,6.96
2018-12-19T08:58:28.544Z,6.94
2018-12-19T09:00:58.964Z,6.91
2018-12-19T09:03:32.104Z,6.95
2018-12-19T09:06:01.674Z,6.94
2018-12-19T09:08:31.513Z,6.97
2018-12-19T09:11:05.636Z,7.03
2018-12-19T09:13:32.997Z,7.02
2018-12-19T09:16:02.815Z,7.05
2018-12-19T09:18:33.400Z,6.71
2018-12-19T09:21:02.930Z,7.23
2018-12-19T09:23:32.495Z,7.23
2018-12-19T09:26:02.373Z,7.25
2018-12-19T09:28:31.783Z,7.32
2018-12-19T09:31:01.589Z,7.32
2018-12-19T09:33:32.275Z,7.25
2018-12-19T09:36:02.026Z,6.68
2018-12-19T09:38:31.587Z,7.33
2018-12-19T09:41:01.518Z,6.87
2018-12-19T09:43:31.496Z,6.69
2018-12-19T09:46:01.401Z,7.08
2018-12-19T09:48:31.719Z,7.02
2018-12-19T09:51:02.432Z,6.97
2018-12-19T09:53:32.330Z,6.96
2018-12-19T09:56:03.135Z,6.95
2018-12-19T09:58:34.501Z,6.84
2018-12-19T10:01:05.992Z,6.74
2018-12-19T10:03:36.192Z,6.78
2018-12-19T10:06:06.205Z,6.85
2018-12-19T10:08:36.448Z,6.90
2018-12-19T10:11:09.343Z,6.31
2018-12-19T10:13:38.864Z,7.00
2018-12-19T10:16:09.949Z,7.11
2018-12-19T10:18:40.039Z,7.21
2018-12-19T10:21:10.291Z,7.17
2018-12-19T10:23:40.783Z,7.19
2018-12-19T10:26:14.304Z,7.29
2018-12-19T10:28:44.308Z,7.35
2018-12-19T10:31:14.439Z,7.33
2018-12-19T10:33:45.482Z,7.44
2018-12-19T10:36:18.358Z,7.49
2018-12-19T10:38:48.710Z,7.35
2018-12-19T10:41:25.313Z,6.83
2018-12-19T10:43:56.364Z,7.33
2018-12-19T10:46:27.278Z,7.46
2018-12-19T10:48:59.330Z,7.44
2018-12-19T10:51:29.657Z,7.46
2018-12-19T10:54:02.491Z,7.43
2018-12-19T10:56:33.791Z,7.33
2018-12-19T10:59:06.075Z,7.51
2018-12-19T11:01:43.608Z,7.61
2018-12-19T11:04:15.155Z,7.67
2018-12-19T11:06:45.171Z,7.59
2018-12-19T11:09:17.874Z,7.54
2018-12-19T11:11:53.122Z,7.37
2018-12-19T11:14:28.582Z,7.54
2018-12-19T11:17:04.162Z,7.60
2018-12-19T11:19:34.730Z,7.68
2018-12-19T11:22:12.789Z,7.69
2018-12-19T11:24:46.723Z,7.78
2018-12-19T11:27:16.717Z,7.89
2018-12-19T11:29:48.545Z,7.93
2018-12-19T11:32:20.631Z,7.93
2018-12-19T11:34:53.188Z,7.91
2018-12-19T11:37:26.433Z,7.94
2018-12-19T11:39:56.625Z,8.06
2018-12-19T11:42:26.580Z,8.04
2018-12-19T11:44:57.109Z,7.58
2018-12-19T11:47:30.385Z,8.03
2018-12-19T11:49:59.903Z,7.94
2018-12-19T11:52:31.946Z,7.97
2018-12-19T11:55:07.305Z,8.03
2018-12-19T11:57:37.586Z,8.05
2018-12-19T12:00:16.336Z,8.10
2018-12-19T12:02:50.825Z,8.05
2018-12-19T12:05:24.041Z,7.80
2018-12-19T12:07:54.115Z,8.15
2018-12-19T12:10:26.882Z,8.18
2018-12-19T12:12:57.166Z,8.20
2018-12-19T12:15:27.329Z,8.24
2018-12-19T12:17:57.548Z,8.20
2018-12-19T12:20:27.414Z,8.23
2018-12-19T12:22:57.957Z,8.10
2018-12-19T12:29:35.194Z,8.18
2018-12-19T12:32:06.132Z,8.27
2018-12-19T12:34:36.176Z,8.34
2018-12-19T12:37:06.618Z,8.40
2018-12-19T12:39:36.182Z,8.48
2018-12-19T12:42:06.463Z,8.52
2018-12-19T12:44:36.474Z,8.56
2018-12-19T12:47:13.045Z,8.55
2018-12-19T12:49:49.025Z,8.36
2018-12-19T12:52:18.715Z,8.28
2018-12-19T12:54:54.744Z,8.31
2018-12-19T12:57:27.751Z,8.42
2018-12-19T13:00:00.279Z,8.34
2018-12-19T13:02:33.012Z,8.32
2018-12-19T13:05:15.412Z,8.31
2018-12-19T13:07:52.080Z,8.29
2018-12-19T13:10:23.948Z,8.26
2018-12-19T13:12:58.941Z,8.27
2018-12-19T13:18:21.831Z,8.22
2018-12-19T13:21:12.741Z,8.26
2018-12-19T13:24:02.788Z,8.16
2018-12-19T13:26:33.525Z,8.11
2018-12-19T13:29:05.870Z,8.16
2018-12-19T13:31:45.246Z,7.96
2018-12-19T13:34:20.941Z,8.01
2018-12-19T13:36:56.142Z,8.17
2018-12-19T13:39:35.622Z,7.77
2018-12-19T13:42:06.238Z,8.30
2018-12-19T13:44:36.810Z,8.26
2018-12-19T13:47:07.245Z,8.27
2018-12-19T13:49:38.543Z,8.16
2018-12-19T13:52:11.485Z,8.11
2018-12-19T13:54:46.465Z,8.09
2018-12-19T13:57:21.846Z,8.03
2018-12-19T13:59:59.472Z,7.82
2018-12-19T14:02:38.675Z,7.78
2018-12-19T14:05:12.899Z,7.85
2018-12-19T14:07:44.094Z,7.80
2018-12-19T14:10:17.524Z,7.86
2018-12-19T14:12:49.968Z,7.79
2018-12-19T14:15:22.300Z,7.86
2018-12-19T14:17:55.644Z,7.89
2018-12-19T14:20:27.336Z,8.03
2018-12-19T14:22:59.537Z,7.93
2018-12-19T14:25:31.670Z,7.88
2018-12-19T14:28:04.419Z,7.95
2018-12-19T14:30:38.132Z,7.86
2018-12-19T14:33:09.465Z,7.94
2018-12-19T14:35:41.459Z,7.93
2018-12-19T14:38:15.626Z,7.76
2018-12-19T14:40:48.321Z,7.62
2018-12-19T14:43:21.019Z,7.53
2018-12-19T14:45:52.022Z,7.49
2018-12-19T14:48:23.133Z,7.32
2018-12-19T14:50:57.053Z,7.28
2018-12-19T14:53:31.290Z,7.28
2018-12-19T14:56:01.746Z,7.15
2018-12-19T14:58:35.655Z,7.17
2018-12-19T15:01:07.092Z,7.19
2018-12-19T15:03:37.802Z,7.17
2018-12-19T15:06:09.516Z,7.11
2018-12-19T15:08:41.398Z,7.18
2018-12-19T15:11:12.996Z,7.19
2018-12-19T15:13:43.603Z,7.14
2018-12-19T15:16:16.886Z,7.08
2018-12-19T15:18:47.661Z,7.05
2018-12-19T15:21:22.614Z,7.02
2018-12-19T15:23:54.785Z,7.01
2018-12-19T15:26:25.684Z,6.98
2018-12-19T15:28:59.949Z,6.90
2018-12-19T15:31:30.719Z,6.88
2018-12-19T15:34:01.858Z,6.88
2018-12-19T15:36:37.814Z,6.82
2018-12-19T15:39:12.710Z,6.83
2018-12-19T15:41:45.937Z,6.84
2018-12-19T15:44:17.171Z,6.84
2018-12-19T15:46:50.362Z,6.80
2018-12-19T15:49:21.910Z,6.80
2018-12-19T15:51:54.194Z,6.79
2018-12-19T15:54:28.146Z,6.80
2018-12-19T15:57:01.352Z,6.77
2018-12-19T15:59:34.284Z,6.61
2018-12-19T16:02:06.805Z,6.58
2018-12-19T16:04:37.571Z,6.56
2018-12-19T16:07:08.273Z,6.59
2018-12-19T16:09:40.036Z,6.56
2018-12-19T16:12:12.042Z,6.47
2018-12-19T16:14:43.608Z,6.42
2018-12-19T16:17:15.588Z,6.40
2018-12-19T16:19:46.927Z,6.40
2018-12-19T16:22:18.541Z,6.31
2018-12-19T16:24:49.090Z,6.29
2018-12-19T16:27:19.299Z,6.27
2018-12-19T16:29:50.352Z,6.26
2018-12-19T16:32:22.389Z,6.22
2018-12-19T16:34:54.233Z,6.26
2018-12-19T16:37:25.426Z,6.33
2018-12-19T16:39:56.624Z,6.42
2018-12-19T16:42:27.313Z,6.44
2018-12-19T16:44:57.343Z,6.42
2018-12-19T16:47:27.082Z,6.46
2018-12-19T16:50:06.893Z,5.77
2018-12-19T16:52:43.148Z,6.36
2018-12-19T16:55:21.276Z,6.40
2018-12-19T16:57:52.824Z,6.49
2018-12-19T17:00:23.323Z,6.56
2018-12-19T17:02:53.568Z,6.61
2018-12-19T17:05:24.634Z,6.69
2018-12-19T17:07:55.963Z,6.78
2018-12-19T17:10:26.184Z,6.81
2018-12-19T17:12:56.540Z,6.84
2018-12-19T17:15:26.794Z,6.87
2018-12-19T17:17:56.982Z,6.95
2018-12-19T17:20:27.914Z,6.96
2018-12-19T17:22:57.875Z,6.96
2018-12-19T17:25:28.254Z,6.95
2018-12-19T17:27:58.019Z,7.00
2018-12-19T17:30:30.688Z,6.98
2018-12-19T17:33:03.455Z,7.04
2018-12-19T17:35:34.346Z,7.08
2018-12-19T17:38:04.886Z,7.09
2018-12-19T17:40:36.879Z,7.17
2018-12-19T17:43:06.898Z,7.22
2018-12-19T17:45:38.015Z,7.20
2018-12-19T17:48:08.860Z,7.24
2018-12-19T17:50:39.780Z,7.22
2018-12-19T17:53:11.081Z,7.21
2018-12-19T17:55:41.558Z,7.52
2018-12-19T17:58:11.097Z,6.78
2018-12-19T18:00:41.086Z,7.30
2018-12-19T18:03:11.668Z,7.31
2018-12-19T18:05:42.001Z,7.32
2018-12-19T18:08:11.632Z,7.35
2018-12-19T18:10:42.735Z,7.38
2018-12-19T18:13:13.945Z,7.34
2018-12-19T18:15:44.049Z,7.29
2018-12-19T18:18:14.157Z,7.38
2018-12-19T18:20:44.095Z,7.36
2018-12-19T18:23:15.887Z,7.44
2018-12-19T18:25:46.591Z,7.46
2018-12-19T18:28:17.351Z,7.46
2018-12-19T18:30:47.150Z,7.50
2018-12-19T18:33:19.540Z,7.50
2018-12-19T18:35:49.007Z,7.52
2018-12-19T18:38:21.990Z,7.54
2018-12-19T18:40:52.404Z,7.56
2018-12-19T18:43:24.371Z,6.95
2018-12-19T18:45:54.211Z,7.56
2018-12-19T18:48:24.174Z,7.63
2018-12-19T18:50:54.316Z,7.64
2018-12-19T18:53:23.956Z,7.68
2018-12-19T18:55:55.967Z,7.67
2018-12-19T18:58:26.103Z,7.70
2018-12-19T19:00:59.958Z,7.71
2018-12-19T19:03:32.316Z,7.72
2018-12-19T19:06:03.975Z,7.76
2018-12-19T19:08:33.733Z,7.85
2018-12-19T19:11:07.345Z,7.88
2018-12-19T19:13:37.139Z,7.85
2018-12-19T19:16:08.323Z,7.87
2018-12-19T19:18:42.867Z,7.88
2018-12-19T19:21:12.601Z,7.89
2018-12-19T19:23:43.557Z,7.90
2018-12-19T19:26:13.483Z,7.79
2018-12-19T19:28:43.019Z,7.67
2018-12-19T19:31:14.261Z,7.62
2018-12-19T19:33:43.866Z,7.56
2018-12-19T19:36:15.310Z,7.67
2018-12-19T19:38:45.820Z,7.62
2018-12-19T19:41:16.244Z,7.55
2018-12-19T19:43:46.140Z,7.49
2018-12-19T19:46:18.349Z,7.42
2018-12-19T19:48:50.746Z,7.31
2018-12-19T19:51:21.698Z,7.20
2018-12-19T19:53:51.704Z,7.04
2018-12-19T19:56:21.677Z,6.95
2018-12-19T19:58:53.012Z,6.94
2018-12-19T20:01:25.854Z,6.85
2018-12-19T20:03:58.493Z,6.76
2018-12-19T20:06:32.231Z,6.69
2018-12-19T20:09:02.392Z,6.62
2018-12-19T20:11:32.043Z,6.55
2018-12-19T20:14:03.176Z,6.49
2018-12-19T20:16:40.132Z,6.41
2018-12-19T20:19:11.404Z,6.36
2018-12-19T20:21:41.207Z,6.30
2018-12-19T20:24:12.189Z,6.27
2018-12-19T20:26:42.359Z,6.19
2018-12-19T20:29:12.558Z,6.15
2018-12-19T20:31:45.541Z,6.11
2018-12-19T20:34:19.357Z,6.06
2018-12-19T20:36:53.558Z,6.08
2018-12-19T20:39:28.019Z,6.15
2018-12-19T20:41:59.096Z,6.12
2018-12-19T20:44:29.287Z,6.13
2018-12-19T20:47:03.455Z,6.16
2018-12-19T20:49:34.731Z,6.21
2018-12-19T20:52:05.047Z,6.26
2018-12-19T20:54:36.946Z,6.24
2018-12-19T20:57:06.900Z,6.25
2018-12-19T20:59:37.468Z,6.28
2018-12-19T21:02:08.499Z,6.30
2018-12-19T21:04:39.238Z,6.29
2018-12-19T21:07:12.711Z,6.26
2018-12-19T21:09:45.274Z,6.29
2018-12-19T21:12:17.502Z,6.31
2018-12-19T21:14:47.622Z,6.29
2018-12-19T21:17:27.466Z,6.32
2018-12-19T21:20:00.817Z,6.34
2018-12-19T21:22:32.726Z,6.37
2018-12-19T21:25:04.710Z,6.38
2018-12-19T21:27:41.132Z,6.33
2018-12-19T21:30:13.305Z,6.30
2018-12-19T21:32:50.348Z,6.31
2018-12-19T21:35:24.498Z,6.35
2018-12-19T21:37:54.594Z,6.34
2018-12-19T21:40:26.889Z,6.33
2018-12-19T21:42:58.772Z,6.34
2018-12-19T21:45:30.616Z,6.36
2018-12-19T21:48:03.574Z,6.34
2018-12-19T21:50:36.115Z,6.36
2018-12-19T21:53:07.468Z,6.31
2018-12-19T21:55:37.963Z,6.27
2018-12-19T21:58:07.594Z,6.22
2018-12-19T22:00:41.928Z,5.55
2018-12-19T22:03:14.680Z,6.26
2018-12-19T22:05:52.103Z,6.30
2018-12-19T22:08:23.795Z,6.32
2018-12-19T22:10:55.251Z,6.32
2018-12-19T22:13:25.690Z,6.28
2018-12-19T22:15:59.440Z,6.32
2018-12-19T22:18:35.623Z,6.32
2018-12-19T22:21:10.795Z,6.34
2018-12-19T22:23:43.424Z,6.36
2018-12-19T22:26:15.058Z,6.39
2018-12-19T22:28:46.806Z,6.41
2018-12-19T22:31:18.370Z,6.43
2018-12-19T22:33:51.284Z,6.32
2018-12-19T22:36:24.907Z,6.35
2018-12-19T22:38:55.248Z,6.33
2018-12-19T22:41:32.087Z,6.28
2018-12-19T22:44:07.821Z,6.24
2018-12-19T22:46:34.506Z,6.20
2018-12-19T22:49:05.170Z,6.15
2018-12-19T22:51:35.752Z,5.43
2018-12-19T22:54:06.078Z,6.07
2018-12-19T22:56:36.779Z,6.03
2018-12-19T22:59:07.456Z,6.03
2018-12-19T23:01:44.696Z,5.99
2018-12-19T23:04:15.454Z,5.99
2018-12-19T23:06:46.548Z,6.01
2018-12-19T23:09:17.924Z,6.01
2018-12-19T23:11:50.162Z,6.05
2018-12-19T23:14:21.460Z,6.10
2018-12-19T23:16:53.891Z,6.14
2018-12-19T23:19:24.998Z,6.16
2018-12-19T23:21:57.084Z,6.18
2018-12-19T23:24:28.188Z,6.23
2018-12-19T23:26:59.973Z,6.27
2018-12-19T23:29:30.729Z,6.29
2018-12-19T23:32:01.639Z,6.29
2018-12-19T23:34:32.812Z,6.34
2018-12-19T23:37:03.283Z,6.39
2018-12-19T23:39:35.622Z,6.43
2018-12-19T23:42:09.800Z,6.48
2018-12-19T23:44:39.673Z,6.56
2018-12-19T23:47:09.657Z,6.59
2018-12-19T23:49:40.538Z,6.62
2018-12-19T23:52:12.366Z,6.65
2018-12-19T23:54:42.075Z,6.66
2018-12-19T23:57:12.217Z,6.65
2018-12-19T23:59:42.510Z,6.69
